sensor_id;sensor_type;location;lat;lon;timestamp;pressure;altitude;pressure_sealevel;temperature
70668;BMP280;58242;51.250;-1.118;2023-03-19T00:00:51;99712.81;;;15.18
70668;BMP280;58242;51.250;-1.118;2023-03-19T00:03:17;99720.16;;;15.21
70668;BMP280;58242;51.250;-1.118;2023-03-19T00:05:50;99722.91;;;15.24
70668;BMP280;58242;51.250;-1.118;2023-03-19T00:08:16;99721.78;;;15.25
70668;BMP280;58242;51.250;-1.118;2023-03-19T00:10:41;99722.97;;;15.27
70668;BMP280;58242;51.250;-1.118;2023-03-19T00:13:06;99734.94;;;15.30
70668;BMP280;58242;51.250;-1.118;2023-03-19T00:15:34;99729.56;;;15.30
70668;BMP280;58242;51.250;-1.118;2023-03-19T00:17:59;99725.72;;;15.31
70668;BMP280;58242;51.250;-1.118;2023-03-19T00:20:24;99729.63;;;15.33
70668;BMP280;58242;51.250;-1.118;2023-03-19T00:22:50;99726.94;;;15.33
70668;BMP280;58242;51.250;-1.118;2023-03-19T00:25:15;99739.59;;;15.33
70668;BMP280;58242;51.250;-1.118;2023-03-19T00:27:41;99751.94;;;15.34
70668;BMP280;58242;51.250;-1.118;2023-03-19T00:30:07;99757.25;;;15.30
70668;BMP280;58242;51.250;-1.118;2023-03-19T00:32:33;99751.47;;;15.28
70668;BMP280;58242;51.250;-1.118;2023-03-19T00:35:00;99776.47;;;15.29
70668;BMP280;58242;51.250;-1.118;2023-03-19T00:37:25;99794.88;;;15.27
70668;BMP280;58242;51.250;-1.118;2023-03-19T00:39:51;99796.34;;;15.21
70668;BMP280;58242;51.250;-1.118;2023-03-19T00:42:16;99799.28;;;15.13
70668;BMP280;58242;51.250;-1.118;2023-03-19T00:44:41;99799.50;;;15.05
70668;BMP280;58242;51.250;-1.118;2023-03-19T00:47:07;99804.03;;;15.01
70668;BMP280;58242;51.250;-1.118;2023-03-19T00:49:32;99817.50;;;15.01
70668;BMP280;58242;51.250;-1.118;2023-03-19T00:51:57;99820.19;;;15.01
70668;BMP280;58242;51.250;-1.118;2023-03-19T00:54:23;99822.09;;;15.00
70668;BMP280;58242;51.250;-1.118;2023-03-19T00:56:48;99824.78;;;15.00
70668;BMP280;58242;51.250;-1.118;2023-03-19T00:59:13;99831.69;;;14.98
70668;BMP280;58242;51.250;-1.118;2023-03-19T01:01:39;99827.84;;;14.99
70668;BMP280;58242;51.250;-1.118;2023-03-19T01:04:04;99825.94;;;14.99
70668;BMP280;58242;51.250;-1.118;2023-03-19T01:06:30;99829.44;;;15.00
70668;BMP280;58242;51.250;-1.118;2023-03-19T01:08:56;99830.56;;;14.99
70668;BMP280;58242;51.250;-1.118;2023-03-19T01:11:21;99829.34;;;14.96
70668;BMP280;58242;51.250;-1.118;2023-03-19T01:13:47;99840.47;;;14.95
70668;BMP280;58242;51.250;-1.118;2023-03-19T01:16:12;99841.19;;;14.92
70668;BMP280;58242;51.250;-1.118;2023-03-19T01:18:37;99855.31;;;14.89
70668;BMP280;58242;51.250;-1.118;2023-03-19T01:21:03;99854.91;;;14.87
70668;BMP280;58242;51.250;-1.118;2023-03-19T01:23:29;99857.16;;;14.85
70668;BMP280;58242;51.250;-1.118;2023-03-19T01:25:54;99862.53;;;14.85
70668;BMP280;58242;51.250;-1.118;2023-03-19T01:28:21;99864.81;;;14.83
70668;BMP280;58242;51.250;-1.118;2023-03-19T01:30:46;99857.88;;;14.82
70668;BMP280;58242;51.250;-1.118;2023-03-19T01:33:12;99865.94;;;14.82
70668;BMP280;58242;51.250;-1.118;2023-03-19T01:35:37;99872.09;;;14.83
70668;BMP280;58242;51.250;-1.118;2023-03-19T01:38:03;99864.47;;;14.85
70668;BMP280;58242;51.250;-1.118;2023-03-19T01:40:28;99867.56;;;14.87
70668;BMP280;58242;51.250;-1.118;2023-03-19T01:43:10;99874.16;;;14.89
70668;BMP280;58242;51.250;-1.118;2023-03-19T01:45:41;99885.38;;;14.91
70668;BMP280;58242;51.250;-1.118;2023-03-19T01:48:15;99891.16;;;14.93
70668;BMP280;58242;51.250;-1.118;2023-03-19T01:50:44;99889.69;;;14.95
70668;BMP280;58242;51.250;-1.118;2023-03-19T01:53:11;99887.78;;;14.96
70668;BMP280;58242;51.250;-1.118;2023-03-19T01:55:37;99882.81;;;14.98
70668;BMP280;58242;51.250;-1.118;2023-03-19T01:58:04;99890.56;;;14.99
70668;BMP280;58242;51.250;-1.118;2023-03-19T02:00:31;99886.69;;;15.00
70668;BMP280;58242;51.250;-1.118;2023-03-19T02:02:59;99879.00;;;14.99
70668;BMP280;58242;51.250;-1.118;2023-03-19T02:05:25;99873.63;;;14.99
70668;BMP280;58242;51.250;-1.118;2023-03-19T02:07:57;99879.78;;;14.99
70668;BMP280;58242;51.250;-1.118;2023-03-19T02:10:23;99884.38;;;14.99
70668;BMP280;58242;51.250;-1.118;2023-03-19T02:12:49;99874.75;;;14.98
70668;BMP280;58242;51.250;-1.118;2023-03-19T02:15:15;99868.16;;;14.95
70668;BMP280;58242;51.250;-1.118;2023-03-19T02:17:41;99869.63;;;14.93
70668;BMP280;58242;51.250;-1.118;2023-03-19T02:22:47;99864.38;;;14.81
70668;BMP280;58242;51.250;-1.118;2023-03-19T02:25:20;99863.84;;;14.72
70668;BMP280;58242;51.250;-1.118;2023-03-19T02:27:49;99872.09;;;14.64
70668;BMP280;58242;51.250;-1.118;2023-03-19T02:30:28;99873.44;;;14.55
70668;BMP280;58242;51.250;-1.118;2023-03-19T02:32:53;99867.34;;;14.39
70668;BMP280;58242;51.250;-1.118;2023-03-19T02:35:19;99873.16;;;14.41
70668;BMP280;58242;51.250;-1.118;2023-03-19T02:37:44;99865.09;;;14.41
70668;BMP280;58242;51.250;-1.118;2023-03-19T02:40:13;99871.66;;;14.44
70668;BMP280;58242;51.250;-1.118;2023-03-19T02:42:40;99878.19;;;14.43
70668;BMP280;58242;51.250;-1.118;2023-03-19T02:45:06;99878.97;;;14.43
70668;BMP280;58242;51.250;-1.118;2023-03-19T02:47:33;99882.78;;;14.42
70668;BMP280;58242;51.250;-1.118;2023-03-19T02:49:58;99887.38;;;14.42
70668;BMP280;58242;51.250;-1.118;2023-03-19T02:52:24;99882.00;;;14.42
70668;BMP280;58242;51.250;-1.118;2023-03-19T02:54:49;99889.28;;;14.41
70668;BMP280;58242;51.250;-1.118;2023-03-19T02:57:15;99885.47;;;14.42
70668;BMP280;58242;51.250;-1.118;2023-03-19T02:59:40;99887.38;;;14.42
70668;BMP280;58242;51.250;-1.118;2023-03-19T03:02:06;99885.81;;;14.41
70668;BMP280;58242;51.250;-1.118;2023-03-19T03:04:33;99893.09;;;14.40
70668;BMP280;58242;51.250;-1.118;2023-03-19T03:06:59;99895.00;;;14.40
70668;BMP280;58242;51.250;-1.118;2023-03-19T03:09:25;99899.63;;;14.39
70668;BMP280;58242;51.250;-1.118;2023-03-19T03:11:51;99899.19;;;14.37
70668;BMP280;58242;51.250;-1.118;2023-03-19T03:14:16;99907.97;;;14.35
70668;BMP280;58242;51.250;-1.118;2023-03-19T03:16:43;99912.56;;;14.34
70668;BMP280;58242;51.250;-1.118;2023-03-19T03:19:08;99911.78;;;14.34
70668;BMP280;58242;51.250;-1.118;2023-03-19T03:21:33;99911.34;;;14.32
70668;BMP280;58242;51.250;-1.118;2023-03-19T03:23:59;99912.91;;;14.33
70668;BMP280;58242;51.250;-1.118;2023-03-19T03:26:25;99917.50;;;14.32
70668;BMP280;58242;51.250;-1.118;2023-03-19T03:28:51;99925.22;;;14.34
70668;BMP280;58242;51.250;-1.118;2023-03-19T03:31:16;99932.88;;;14.32
70668;BMP280;58242;51.250;-1.118;2023-03-19T03:33:42;99931.94;;;14.24
70668;BMP280;58242;51.250;-1.118;2023-03-19T03:36:07;99940.19;;;14.16
70668;BMP280;58242;51.250;-1.118;2023-03-19T03:38:33;99942.59;;;14.06
70668;BMP280;58242;51.250;-1.118;2023-03-19T03:40:58;99948.25;;;14.01
70668;BMP280;58242;51.250;-1.118;2023-03-19T03:43:24;99946.53;;;13.93
70668;BMP280;58242;51.250;-1.118;2023-03-19T03:45:50;99954.06;;;13.88
70668;BMP280;58242;51.250;-1.118;2023-03-19T03:48:16;99948.25;;;13.86
70668;BMP280;58242;51.250;-1.118;2023-03-19T03:50:41;99939.06;;;13.87
70668;BMP280;58242;51.250;-1.118;2023-03-19T03:53:07;99946.00;;;13.88
70668;BMP280;58242;51.250;-1.118;2023-03-19T03:55:33;99955.16;;;13.87
70668;BMP280;58242;51.250;-1.118;2023-03-19T03:57:58;99960.47;;;13.84
70668;BMP280;58242;51.250;-1.118;2023-03-19T04:00:23;99959.13;;;13.78
70668;BMP280;58242;51.250;-1.118;2023-03-19T04:02:49;99965.53;;;13.73
70668;BMP280;58242;51.250;-1.118;2023-03-19T04:05:15;99964.59;;;13.66
70668;BMP280;58242;51.250;-1.118;2023-03-19T04:07:41;99977.38;;;13.57
70668;BMP280;58242;51.250;-1.118;2023-03-19T04:10:08;99965.59;;;13.47
70668;BMP280;58242;51.250;-1.118;2023-03-19T04:12:35;99966.44;;;13.35
70668;BMP280;58242;51.250;-1.118;2023-03-19T04:15:02;99960.69;;;13.22
70668;BMP280;58242;51.250;-1.118;2023-03-19T04:17:28;99962.66;;;13.10
70668;BMP280;58242;51.250;-1.118;2023-03-19T04:19:53;99988.06;;;13.00
70668;BMP280;58242;51.250;-1.118;2023-03-19T04:22:19;99987.84;;;12.94
70668;BMP280;58242;51.250;-1.118;2023-03-19T04:24:44;100000.75;;;12.88
70668;BMP280;58242;51.250;-1.118;2023-03-19T04:27:09;100002.53;;;12.84
70668;BMP280;58242;51.250;-1.118;2023-03-19T04:29:35;100001.66;;;12.81
70668;BMP280;58242;51.250;-1.118;2023-03-19T04:32:00;100007.81;;;12.81
70668;BMP280;58242;51.250;-1.118;2023-03-19T04:34:25;100010.81;;;12.80
70668;BMP280;58242;51.250;-1.118;2023-03-19T04:36:51;100013.81;;;12.78
70668;BMP280;58242;51.250;-1.118;2023-03-19T04:39:16;100012.94;;;12.74
70668;BMP280;58242;51.250;-1.118;2023-03-19T04:41:42;100006.69;;;12.70
70668;BMP280;58242;51.250;-1.118;2023-03-19T04:44:08;100006.16;;;12.65
70668;BMP280;58242;51.250;-1.118;2023-03-19T04:46:33;100019.44;;;12.62
70668;BMP280;58242;51.250;-1.118;2023-03-19T04:48:59;100016.16;;;12.56
70668;BMP280;58242;51.250;-1.118;2023-03-19T04:51:24;100030.16;;;12.50
70668;BMP280;58242;51.250;-1.118;2023-03-19T04:53:50;100032.72;;;12.47
70668;BMP280;58242;51.250;-1.118;2023-03-19T04:56:15;100034.84;;;12.41
70668;BMP280;58242;51.250;-1.118;2023-03-19T04:58:42;100040.41;;;12.36
70668;BMP280;58242;51.250;-1.118;2023-03-19T05:01:07;100040.66;;;12.31
70668;BMP280;58242;51.250;-1.118;2023-03-19T05:03:33;100044.66;;;12.26
70668;BMP280;58242;51.250;-1.118;2023-03-19T05:05:58;100047.59;;;12.21
70668;BMP280;58242;51.250;-1.118;2023-03-19T05:08:23;100051.56;;;12.15
70668;BMP280;58242;51.250;-1.118;2023-03-19T05:10:49;100059.81;;;12.10
70668;BMP280;58242;51.250;-1.118;2023-03-19T05:13:14;100059.72;;;12.07
70668;BMP280;58242;51.250;-1.118;2023-03-19T05:15:41;100057.69;;;12.04
70668;BMP280;58242;51.250;-1.118;2023-03-19T05:18:07;100071.31;;;11.99
70668;BMP280;58242;51.250;-1.118;2023-03-19T05:20:33;100070.75;;;11.94
70668;BMP280;58242;51.250;-1.118;2023-03-19T05:22:58;100071.41;;;11.91
70668;BMP280;58242;51.250;-1.118;2023-03-19T05:25:24;100076.63;;;11.87
70668;BMP280;58242;51.250;-1.118;2023-03-19T05:27:49;100084.91;;;11.82
70668;BMP280;58242;51.250;-1.118;2023-03-19T05:30:14;100079.31;;;11.76
70668;BMP280;58242;51.250;-1.118;2023-03-19T05:32:42;100082.16;;;11.71
70668;BMP280;58242;51.250;-1.118;2023-03-19T05:35:08;100081.25;;;11.67
70668;BMP280;58242;51.250;-1.118;2023-03-19T05:37:34;100092.66;;;11.64
70668;BMP280;58242;51.250;-1.118;2023-03-19T05:39:59;100102.09;;;11.62
70668;BMP280;58242;51.250;-1.118;2023-03-19T05:42:25;100100.09;;;11.59
70668;BMP280;58242;51.250;-1.118;2023-03-19T05:44:50;100103.75;;;11.54
70668;BMP280;58242;51.250;-1.118;2023-03-19T05:47:15;100105.19;;;11.52
70668;BMP280;58242;51.250;-1.118;2023-03-19T05:49:41;100109.63;;;11.48
70668;BMP280;58242;51.250;-1.118;2023-03-19T05:52:06;100110.94;;;11.42
70668;BMP280;58242;51.250;-1.118;2023-03-19T05:54:32;100115.38;;;11.38
70668;BMP280;58242;51.250;-1.118;2023-03-19T05:56:57;100116.03;;;11.35
70668;BMP280;58242;51.250;-1.118;2023-03-19T05:59:22;100118.56;;;11.32
70668;BMP280;58242;51.250;-1.118;2023-03-19T06:01:48;100123.00;;;11.28
70668;BMP280;58242;51.250;-1.118;2023-03-19T06:04:13;100121.28;;;11.24
70668;BMP280;58242;51.250;-1.118;2023-03-19T06:06:38;100119.25;;;11.21
70668;BMP280;58242;51.250;-1.118;2023-03-19T06:09:04;100126.06;;;11.18
70668;BMP280;58242;51.250;-1.118;2023-03-19T06:11:29;100124.78;;;11.16
70668;BMP280;58242;51.250;-1.118;2023-03-19T06:13:55;100132.81;;;11.16
70668;BMP280;58242;51.250;-1.118;2023-03-19T06:16:20;100136.16;;;11.13
70668;BMP280;58242;51.250;-1.118;2023-03-19T06:18:45;100143.72;;;11.11
70668;BMP280;58242;51.250;-1.118;2023-03-19T06:21:11;100144.84;;;11.10
70668;BMP280;58242;51.250;-1.118;2023-03-19T06:23:37;100147.19;;;11.11
70668;BMP280;58242;51.250;-1.118;2023-03-19T06:26:02;100152.53;;;11.11
70668;BMP280;58242;51.250;-1.118;2023-03-19T06:28:28;100150.63;;;11.12
70668;BMP280;58242;51.250;-1.118;2023-03-19T06:30:54;100155.97;;;11.12
70668;BMP280;58242;51.250;-1.118;2023-03-19T06:33:20;100159.44;;;11.12
70668;BMP280;58242;51.250;-1.118;2023-03-19T06:35:45;100157.09;;;11.11
70668;BMP280;58242;51.250;-1.118;2023-03-19T06:38:11;100167.03;;;11.11
70668;BMP280;58242;51.250;-1.118;2023-03-19T06:40:36;100164.66;;;11.09
70668;BMP280;58242;51.250;-1.118;2023-03-19T06:43:01;100181.38;;;11.06
70668;BMP280;58242;51.250;-1.118;2023-03-19T06:45:27;100172.09;;;11.04
70668;BMP280;58242;51.250;-1.118;2023-03-19T06:47:52;100179.66;;;11.02
70668;BMP280;58242;51.250;-1.118;2023-03-19T06:50:17;100176.97;;;11.02
70668;BMP280;58242;51.250;-1.118;2023-03-19T06:52:43;100177.75;;;11.02
70668;BMP280;58242;51.250;-1.118;2023-03-19T06:55:09;100182.03;;;11.03
70668;BMP280;58242;51.250;-1.118;2023-03-19T06:57:35;100189.38;;;11.06
70668;BMP280;58242;51.250;-1.118;2023-03-19T07:00:01;100194.44;;;11.08
70668;BMP280;58242;51.250;-1.118;2023-03-19T07:02:27;100195.66;;;11.10
70668;BMP280;58242;51.250;-1.118;2023-03-19T07:04:52;100198.47;;;11.13
70668;BMP280;58242;51.250;-1.118;2023-03-19T07:07:18;100203.97;;;11.17
70668;BMP280;58242;51.250;-1.118;2023-03-19T07:09:43;100208.03;;;11.23
70668;BMP280;58242;51.250;-1.118;2023-03-19T07:12:09;100215.25;;;11.30
70668;BMP280;58242;51.250;-1.118;2023-03-19T07:14:34;100220.03;;;11.45
70668;BMP280;58242;51.250;-1.118;2023-03-19T07:16:59;100218.81;;;11.63
70668;BMP280;58242;51.250;-1.118;2023-03-19T07:19:25;100215.41;;;11.94
70668;BMP280;58242;51.250;-1.118;2023-03-19T07:21:50;100224.28;;;12.37
70668;BMP280;58242;51.250;-1.118;2023-03-19T07:24:16;100207.75;;;12.79
70668;BMP280;58242;51.250;-1.118;2023-03-19T07:26:41;100204.75;;;13.15
70668;BMP280;58242;51.250;-1.118;2023-03-19T07:29:08;100207.97;;;13.44
70668;BMP280;58242;51.250;-1.118;2023-03-19T07:31:33;100209.13;;;13.69
70668;BMP280;58242;51.250;-1.118;2023-03-19T07:33:59;100207.38;;;14.00
70668;BMP280;58242;51.250;-1.118;2023-03-19T07:36:24;100212.16;;;14.33
70668;BMP280;58242;51.250;-1.118;2023-03-19T07:38:50;100207.97;;;14.62
70668;BMP280;58242;51.250;-1.118;2023-03-19T07:41:16;100202.88;;;14.72
70668;BMP280;58242;51.250;-1.118;2023-03-19T07:43:41;100208.50;;;14.83
70668;BMP280;58242;51.250;-1.118;2023-03-19T07:46:06;100220.50;;;15.00
70668;BMP280;58242;51.250;-1.118;2023-03-19T07:48:32;100216.53;;;15.09
70668;BMP280;58242;51.250;-1.118;2023-03-19T07:50:57;100229.91;;;15.06
70668;BMP280;58242;51.250;-1.118;2023-03-19T07:53:22;100226.66;;;15.01
70668;BMP280;58242;51.250;-1.118;2023-03-19T07:55:48;100230.53;;;15.00
70668;BMP280;58242;51.250;-1.118;2023-03-19T07:58:13;100237.72;;;15.11
70668;BMP280;58242;51.250;-1.118;2023-03-19T08:00:39;100241.75;;;15.35
70668;BMP280;58242;51.250;-1.118;2023-03-19T08:03:04;100240.50;;;15.63
70668;BMP280;58242;51.250;-1.118;2023-03-19T08:05:30;100245.06;;;15.92
70668;BMP280;58242;51.250;-1.118;2023-03-19T08:07:55;100246.75;;;16.37
70668;BMP280;58242;51.250;-1.118;2023-03-19T08:10:21;100239.56;;;16.85
70668;BMP280;58242;51.250;-1.118;2023-03-19T08:12:46;100239.38;;;17.40
70668;BMP280;58242;51.250;-1.118;2023-03-19T08:15:13;100242.59;;;17.99
70668;BMP280;58242;51.250;-1.118;2023-03-19T08:17:38;100242.25;;;18.65
70668;BMP280;58242;51.250;-1.118;2023-03-19T08:20:10;100241.38;;;19.35
70668;BMP280;58242;51.250;-1.118;2023-03-19T08:22:36;100250.31;;;19.95
70668;BMP280;58242;51.250;-1.118;2023-03-19T08:25:03;100257.97;;;20.46
70668;BMP280;58242;51.250;-1.118;2023-03-19T08:27:29;100260.81;;;20.97
70668;BMP280;58242;51.250;-1.118;2023-03-19T08:29:55;100259.69;;;21.45
70668;BMP280;58242;51.250;-1.118;2023-03-19T08:32:21;100264.34;;;21.86
70668;BMP280;58242;51.250;-1.118;2023-03-19T08:34:46;100267.78;;;22.10
70668;BMP280;58242;51.250;-1.118;2023-03-19T08:37:12;100266.22;;;22.09
70668;BMP280;58242;51.250;-1.118;2023-03-19T08:39:37;100270.56;;;21.83
70668;BMP280;58242;51.250;-1.118;2023-03-19T08:42:03;100269.78;;;21.62
70668;BMP280;58242;51.250;-1.118;2023-03-19T08:44:28;100286.91;;;21.39
70668;BMP280;58242;51.250;-1.118;2023-03-19T08:46:53;100298.06;;;21.00
70668;BMP280;58242;51.250;-1.118;2023-03-19T08:49:19;100305.31;;;20.52
70668;BMP280;58242;51.250;-1.118;2023-03-19T08:51:45;100305.03;;;20.01
70668;BMP280;58242;51.250;-1.118;2023-03-19T08:54:10;100303.16;;;19.55
70668;BMP280;58242;51.250;-1.118;2023-03-19T08:56:38;100315.56;;;19.18
70668;BMP280;58242;51.250;-1.118;2023-03-19T08:59:03;100320.66;;;18.87
70668;BMP280;58242;51.250;-1.118;2023-03-19T09:01:28;100335.41;;;18.61
70668;BMP280;58242;51.250;-1.118;2023-03-19T09:03:54;100338.16;;;18.35
70668;BMP280;58242;51.250;-1.118;2023-03-19T09:06:19;100340.91;;;18.10
70668;BMP280;58242;51.250;-1.118;2023-03-19T09:08:45;100335.97;;;17.90
70668;BMP280;58242;51.250;-1.118;2023-03-19T09:11:11;100333.31;;;17.72
70668;BMP280;58242;51.250;-1.118;2023-03-19T09:13:38;100341.63;;;17.60
70668;BMP280;58242;51.250;-1.118;2023-03-19T09:16:05;100340.75;;;17.53
70668;BMP280;58242;51.250;-1.118;2023-03-19T09:18:31;100352.22;;;17.46
70668;BMP280;58242;51.250;-1.118;2023-03-19T09:20:57;100356.78;;;17.43
70668;BMP280;58242;51.250;-1.118;2023-03-19T09:23:22;100358.31;;;17.40
70668;BMP280;58242;51.250;-1.118;2023-03-19T09:25:48;100353.97;;;17.36
70668;BMP280;58242;51.250;-1.118;2023-03-19T09:28:13;100352.41;;;17.35
70668;BMP280;58242;51.250;-1.118;2023-03-19T09:30:39;100355.91;;;17.35
70668;BMP280;58242;51.250;-1.118;2023-03-19T09:33:05;100362.09;;;17.36
70668;BMP280;58242;51.250;-1.118;2023-03-19T09:35:31;100361.25;;;17.32
70668;BMP280;58242;51.250;-1.118;2023-03-19T09:38:00;100358.19;;;17.33
70668;BMP280;58242;51.250;-1.118;2023-03-19T09:40:29;100371.50;;;17.23
70668;BMP280;58242;51.250;-1.118;2023-03-19T09:43:38;100371.59;;;17.30
70668;BMP280;58242;51.250;-1.118;2023-03-19T09:46:18;100374.41;;;17.33
70668;BMP280;58242;51.250;-1.118;2023-03-19T09:48:55;100360.88;;;17.33
70668;BMP280;58242;51.250;-1.118;2023-03-19T09:51:28;100362.03;;;17.32
70668;BMP280;58242;51.250;-1.118;2023-03-19T09:56:21;100372.03;;;17.32
70668;BMP280;58242;51.250;-1.118;2023-03-19T09:58:46;100372.41;;;17.30
70668;BMP280;58242;51.250;-1.118;2023-03-19T10:01:23;100377.38;;;17.29
70668;BMP280;58242;51.250;-1.118;2023-03-19T10:17:01;100388.66;;;17.52
70668;BMP280;58242;51.250;-1.118;2023-03-19T10:19:40;100398.13;;;17.65
70668;BMP280;58242;51.250;-1.118;2023-03-19T10:22:14;100392.25;;;17.81
70668;BMP280;58242;51.250;-1.118;2023-03-19T10:24:43;100396.63;;;17.89
70668;BMP280;58242;51.250;-1.118;2023-03-19T10:27:15;100399.41;;;17.93
70668;BMP280;58242;51.250;-1.118;2023-03-19T10:29:41;100400.19;;;17.93
70668;BMP280;58242;51.250;-1.118;2023-03-19T10:34:49;100400.88;;;17.90
70668;BMP280;58242;51.250;-1.118;2023-03-19T10:37:26;100399.50;;;17.99
70668;BMP280;58242;51.250;-1.118;2023-03-19T10:39:55;100404.34;;;18.13
70668;BMP280;58242;51.250;-1.118;2023-03-19T10:45:31;100397.53;;;18.22
70668;BMP280;58242;51.250;-1.118;2023-03-19T10:47:59;100400.22;;;18.22
70668;BMP280;58242;51.250;-1.118;2023-03-19T10:50:36;100396.78;;;18.25
70668;BMP280;58242;51.250;-1.118;2023-03-19T10:53:24;100400.75;;;18.31
70668;BMP280;58242;51.250;-1.118;2023-03-19T10:55:56;100403.28;;;18.46
70668;BMP280;58242;51.250;-1.118;2023-03-19T10:58:25;100400.44;;;18.64
70668;BMP280;58242;51.250;-1.118;2023-03-19T11:01:06;100398.38;;;18.80
70668;BMP280;58242;51.250;-1.118;2023-03-19T11:03:32;100397.78;;;18.96
70668;BMP280;58242;51.250;-1.118;2023-03-19T11:08:36;100403.22;;;19.00
70668;BMP280;58242;51.250;-1.118;2023-03-19T11:11:02;100410.09;;;18.90
70668;BMP280;58242;51.250;-1.118;2023-03-19T11:13:27;100406.53;;;18.83
70668;BMP280;58242;51.250;-1.118;2023-03-19T11:15:56;100404.53;;;18.77
70668;BMP280;58242;51.250;-1.118;2023-03-19T11:18:27;100400.91;;;18.69
70668;BMP280;58242;51.250;-1.118;2023-03-19T11:20:58;100401.91;;;18.58
70668;BMP280;58242;51.250;-1.118;2023-03-19T11:23:28;100399.44;;;18.47
70668;BMP280;58242;51.250;-1.118;2023-03-19T11:25:58;100404.75;;;18.40
70668;BMP280;58242;51.250;-1.118;2023-03-19T11:28:26;100400.41;;;18.35
70668;BMP280;58242;51.250;-1.118;2023-03-19T11:34:02;100402.94;;;18.22
70668;BMP280;58242;51.250;-1.118;2023-03-19T11:42:28;100417.06;;;18.09
70668;BMP280;58242;51.250;-1.118;2023-03-19T11:48:00;100421.72;;;18.12
70668;BMP280;58242;51.250;-1.118;2023-03-19T11:53:18;100438.66;;;18.31
70668;BMP280;58242;51.250;-1.118;2023-03-19T11:55:55;100438.41;;;18.39
70668;BMP280;58242;51.250;-1.118;2023-03-19T12:04:14;100440.53;;;18.27
70668;BMP280;58242;51.250;-1.118;2023-03-19T12:07:05;100438.78;;;18.15
70668;BMP280;58242;51.250;-1.118;2023-03-19T12:09:44;100432.50;;;18.08
70668;BMP280;58242;51.250;-1.118;2023-03-19T12:12:24;100438.22;;;18.03
70668;BMP280;58242;51.250;-1.118;2023-03-19T12:15:08;100428.97;;;18.04
70668;BMP280;58242;51.250;-1.118;2023-03-19T12:23:55;100421.94;;;18.25
70668;BMP280;58242;51.250;-1.118;2023-03-19T12:26:31;100430.09;;;18.29
70668;BMP280;58242;51.250;-1.118;2023-03-19T12:29:12;100416.63;;;18.32
70668;BMP280;58242;51.250;-1.118;2023-03-19T12:31:57;100410.97;;;18.44
70668;BMP280;58242;51.250;-1.118;2023-03-19T12:34:40;100413.22;;;18.64
70668;BMP280;58242;51.250;-1.118;2023-03-19T12:40:28;100413.56;;;19.23
70668;BMP280;58242;51.250;-1.118;2023-03-19T12:42:58;100404.06;;;19.39
70668;BMP280;58242;51.250;-1.118;2023-03-19T12:45:41;100400.09;;;19.65
70668;BMP280;58242;51.250;-1.118;2023-03-19T12:48:11;100408.81;;;19.87
70668;BMP280;58242;51.250;-1.118;2023-03-19T12:50:40;100399.63;;;20.02
70668;BMP280;58242;51.250;-1.118;2023-03-19T12:53:18;100403.94;;;20.10
70668;BMP280;58242;51.250;-1.118;2023-03-19T12:55:52;100404.38;;;20.12
70668;BMP280;58242;51.250;-1.118;2023-03-19T12:58:36;100402.03;;;20.14
70668;BMP280;58242;51.250;-1.118;2023-03-19T13:01:06;100410.69;;;20.29
70668;BMP280;58242;51.250;-1.118;2023-03-19T13:03:49;100413.09;;;20.38
70668;BMP280;58242;51.250;-1.118;2023-03-19T13:06:22;100408.44;;;20.35
70668;BMP280;58242;51.250;-1.118;2023-03-19T13:13:58;100402.47;;;20.19
70668;BMP280;58242;51.250;-1.118;2023-03-19T13:16:47;100409.75;;;20.05
70668;BMP280;58242;51.250;-1.118;2023-03-19T13:19:44;100410.78;;;19.94
70668;BMP280;58242;51.250;-1.118;2023-03-19T13:22:13;100413.06;;;19.85
70668;BMP280;58242;51.250;-1.118;2023-03-19T13:24:41;100410.59;;;19.70
70668;BMP280;58242;51.250;-1.118;2023-03-19T13:27:15;100409.31;;;19.57
70668;BMP280;58242;51.250;-1.118;2023-03-19T13:30:06;100407.66;;;19.50
70668;BMP280;58242;51.250;-1.118;2023-03-19T13:32:39;100400.03;;;19.58
70668;BMP280;58242;51.250;-1.118;2023-03-19T13:38:16;100395.13;;;20.23
70668;BMP280;58242;51.250;-1.118;2023-03-19T13:46:08;100409.44;;;20.76
70668;BMP280;58242;51.250;-1.118;2023-03-19T13:48:53;100410.16;;;20.66
70668;BMP280;58242;51.250;-1.118;2023-03-19T13:54:06;100405.44;;;20.50
70668;BMP280;58242;51.250;-1.118;2023-03-19T13:59:30;100413.84;;;20.31
70668;BMP280;58242;51.250;-1.118;2023-03-19T14:01:57;100417.63;;;20.20
70668;BMP280;58242;51.250;-1.118;2023-03-19T14:07:11;100417.38;;;19.89
70668;BMP280;58242;51.250;-1.118;2023-03-19T14:09:42;100424.19;;;19.73
70668;BMP280;58242;51.250;-1.118;2023-03-19T14:12:19;100423.31;;;19.59
70668;BMP280;58242;51.250;-1.118;2023-03-19T14:15:24;100436.16;;;19.34
70668;BMP280;58242;51.250;-1.118;2023-03-19T14:28:21;100438.81;;;18.95
70668;BMP280;58242;51.250;-1.118;2023-03-19T14:30:47;100439.97;;;18.97
70668;BMP280;58242;51.250;-1.118;2023-03-19T14:33:22;100433.41;;;18.98
70668;BMP280;58242;51.250;-1.118;2023-03-19T14:35:50;100428.38;;;18.97
70668;BMP280;58242;51.250;-1.118;2023-03-19T14:38:27;100429.09;;;18.94
70668;BMP280;58242;51.250;-1.118;2023-03-19T14:40:58;100422.47;;;18.88
70668;BMP280;58242;51.250;-1.118;2023-03-19T14:46:43;100430.56;;;18.59
70668;BMP280;58242;51.250;-1.118;2023-03-19T14:52:12;100427.13;;;18.37
70668;BMP280;58242;51.250;-1.118;2023-03-19T14:54:47;100423.25;;;18.34
70668;BMP280;58242;51.250;-1.118;2023-03-19T14:57:20;100428.66;;;18.34
70668;BMP280;58242;51.250;-1.118;2023-03-19T14:59:48;100436.03;;;18.37
70668;BMP280;58242;51.250;-1.118;2023-03-19T15:02:31;100438.00;;;18.40
70668;BMP280;58242;51.250;-1.118;2023-03-19T15:04:58;100448.06;;;18.40
70668;BMP280;58242;51.250;-1.118;2023-03-19T15:07:33;100435.69;;;18.39
70668;BMP280;58242;51.250;-1.118;2023-03-19T15:10:03;100436.81;;;18.38
70668;BMP280;58242;51.250;-1.118;2023-03-19T15:12:41;100437.97;;;18.37
70668;BMP280;58242;51.250;-1.118;2023-03-19T15:15:14;100439.53;;;18.38
70668;BMP280;58242;51.250;-1.118;2023-03-19T15:17:41;100425.25;;;18.41
70668;BMP280;58242;51.250;-1.118;2023-03-19T15:20:21;100429.59;;;18.45
70668;BMP280;58242;51.250;-1.118;2023-03-19T15:22:55;100432.03;;;18.53
70668;BMP280;58242;51.250;-1.118;2023-03-19T15:25:22;100430.19;;;18.61
70668;BMP280;58242;51.250;-1.118;2023-03-19T15:28:10;100422.22;;;18.71
70668;BMP280;58242;51.250;-1.118;2023-03-19T15:30:37;100419.28;;;18.83